sensor_id;sensor_type;location;lat;lon;timestamp;pressure;altitude;pressure_sealevel;temperature;humidity
78485;BME280;67773;50.806;8.776;2023-03-05T13:04:16;99306.22;;;21.36;39.14
78485;BME280;67773;50.806;8.776;2023-03-05T13:06:45;99291.53;;;21.30;39.31
78485;BME280;67773;50.806;8.776;2023-03-05T13:12:11;99292.03;;;21.51;38.52
78485;BME280;67773;50.806;8.776;2023-03-05T13:23:16;99286.63;;;21.77;37.73
78485;BME280;67773;50.806;8.776;2023-03-05T13:25:44;99278.16;;;21.72;37.97
78485;BME280;67773;50.806;8.776;2023-03-05T13:28:15;99282.41;;;21.75;38.00
78485;BME280;67773;50.806;8.776;2023-03-05T13:31:14;99267.03;;;21.75;37.95
78485;BME280;67773;50.806;8.776;2023-03-05T13:33:50;99271.13;;;21.79;37.87
78485;BME280;67773;50.806;8.776;2023-03-05T13:36:17;99268.38;;;21.71;37.84
78485;BME280;67773;50.806;8.776;2023-03-05T13:38:46;99260.09;;;21.73;37.85
78485;BME280;67773;50.806;8.776;2023-03-05T13:43:45;99252.75;;;21.83;37.54
78485;BME280;67773;50.806;8.776;2023-03-05T13:46:12;99253.59;;;21.83;37.63
78485;BME280;67773;50.806;8.776;2023-03-05T13:48:37;99254.34;;;21.68;37.55
78485;BME280;67773;50.806;8.776;2023-03-05T13:51:03;99243.66;;;21.58;37.73
78485;BME280;67773;50.806;8.776;2023-03-05T13:53:34;99240.69;;;21.77;37.45
78485;BME280;67773;50.806;8.776;2023-03-05T13:56:07;99238.84;;;21.78;37.56
78485;BME280;67773;50.806;8.776;2023-03-05T14:01:34;99228.03;;;21.78;37.45
78485;BME280;67773;50.806;8.776;2023-03-05T14:04:15;99229.44;;;21.82;37.42
78485;BME280;67773;50.806;8.776;2023-03-05T14:09:46;99220.66;;;21.88;37.30
78485;BME280;67773;50.806;8.776;2023-03-05T14:18:21;99205.84;;;21.92;37.35
78485;BME280;67773;50.806;8.776;2023-03-05T14:23:47;99202.16;;;22.01;37.19
78485;BME280;67773;50.806;8.776;2023-03-05T14:31:43;99188.81;;;22.00;37.23
78485;BME280;67773;50.806;8.776;2023-03-05T14:34:19;99185.94;;;22.01;37.15
78485;BME280;67773;50.806;8.776;2023-03-05T14:36:47;99191.34;;;22.01;37.15
78485;BME280;67773;50.806;8.776;2023-03-05T14:45:13;99175.50;;;22.06;37.10
78485;BME280;67773;50.806;8.776;2023-03-05T14:47:39;99169.09;;;22.07;37.01
78485;BME280;67773;50.806;8.776;2023-03-05T14:50:06;99166.38;;;22.07;37.11
78485;BME280;67773;50.806;8.776;2023-03-05T14:52:32;99158.13;;;22.09;37.14
78485;BME280;67773;50.806;8.776;2023-03-05T14:54:58;99146.47;;;22.08;37.14
78485;BME280;67773;50.806;8.776;2023-03-05T14:57:26;99149.69;;;22.12;36.88
78485;BME280;67773;50.806;8.776;2023-03-05T14:59:52;99149.53;;;22.13;37.00
78485;BME280;67773;50.806;8.776;2023-03-05T15:02:24;99142.78;;;22.17;36.83
78485;BME280;67773;50.806;8.776;2023-03-05T15:04:50;99132.47;;;22.13;36.80
78485;BME280;67773;50.806;8.776;2023-03-05T15:10:20;99129.75;;;22.13;37.05
78485;BME280;67773;50.806;8.776;2023-03-05T15:12:45;99126.22;;;22.29;36.82
78485;BME280;67773;50.806;8.776;2023-03-05T15:15:14;99128.94;;;22.29;36.81
78485;BME280;67773;50.806;8.776;2023-03-05T15:17:41;99124.38;;;22.29;36.80
78485;BME280;67773;50.806;8.776;2023-03-05T15:20:11;99124.22;;;22.31;36.58
78485;BME280;67773;50.806;8.776;2023-03-05T15:22:38;99122.38;;;22.31;36.80
78485;BME280;67773;50.806;8.776;2023-03-05T15:25:04;99123.72;;;22.35;36.53
78485;BME280;67773;50.806;8.776;2023-03-05T15:27:30;99126.59;;;22.34;36.50
78485;BME280;67773;50.806;8.776;2023-03-05T15:29:55;99118.13;;;22.37;36.39
78485;BME280;67773;50.806;8.776;2023-03-05T15:32:20;99115.59;;;22.35;36.34
78485;BME280;67773;50.806;8.776;2023-03-05T15:34:46;99110.03;;;22.37;36.53
78485;BME280;67773;50.806;8.776;2023-03-05T15:37:11;99106.31;;;22.38;36.23
78485;BME280;67773;50.806;8.776;2023-03-05T15:39:37;99103.94;;;22.35;36.40
78485;BME280;67773;50.806;8.776;2023-03-05T15:42:03;99102.75;;;22.37;36.46
78485;BME280;67773;50.806;8.776;2023-03-05T15:44:28;99098.19;;;22.38;36.35
78485;BME280;67773;50.806;8.776;2023-03-05T15:46:54;99092.63;;;22.39;36.45
78485;BME280;67773;50.806;8.776;2023-03-05T15:49:21;99090.94;;;22.38;36.61
78485;BME280;67773;50.806;8.776;2023-03-05T15:51:49;99086.06;;;22.42;36.52
78485;BME280;67773;50.806;8.776;2023-03-05T15:54:17;99087.06;;;22.41;36.50
78485;BME280;67773;50.806;8.776;2023-03-05T15:56:44;99078.44;;;22.54;36.34
